createdAt,value
2018-05-16T00:01:55.567Z,74.80
2018-05-16T00:04:22.936Z,74.70
2018-05-16T00:06:50.436Z,74.60
2018-05-16T00:09:17.894Z,74.50
2018-05-16T00:11:45.352Z,74.70
2018-05-16T00:14:12.812Z,74.80
2018-05-16T00:16:40.237Z,75.00
2018-05-16T00:19:07.679Z,74.80
2018-05-16T00:21:35.901Z,74.90
2018-05-16T00:24:03.341Z,74.90
2018-05-16T00:26:30.813Z,74.80
2018-05-16T00:28:58.273Z,74.30
2018-05-16T00:31:25.702Z,74.30
2018-05-16T00:33:53.148Z,74.20
2018-05-16T00:36:21.402Z,73.70
2018-05-16T00:38:48.838Z,73.70
2018-05-16T00:41:16.276Z,73.60
2018-05-16T00:43:43.737Z,73.40
2018-05-16T00:46:11.193Z,73.20
2018-05-16T00:48:38.652Z,72.70
2018-05-16T00:51:18.053Z,72.70
2018-05-16T00:53:45.648Z,73.00
2018-05-16T00:56:13.205Z,72.70
2018-05-16T00:58:40.646Z,72.60
2018-05-16T01:01:08.086Z,72.30
2018-05-16T01:03:36.289Z,71.70
2018-05-16T01:06:03.718Z,71.70
2018-05-16T01:08:31.937Z,72.70
2018-05-16T01:10:59.365Z,71.70
2018-05-16T01:13:26.846Z,72.70
2018-05-16T01:15:54.305Z,72.50
2018-05-16T01:18:21.761Z,72.70
2018-05-16T01:20:49.201Z,72.00
2018-05-16T01:23:16.677Z,71.90
2018-05-16T01:25:44.117Z,71.60
2018-05-16T01:28:11.592Z,71.60
2018-05-16T01:30:39.033Z,72.00
2018-05-16T01:33:06.505Z,71.70
2018-05-16T01:35:34.069Z,71.70
2018-05-16T01:38:01.529Z,71.60
2018-05-16T01:40:28.962Z,70.60
2018-05-16T01:42:56.744Z,71.00
2018-05-16T01:45:24.172Z,71.70
2018-05-16T01:47:52.365Z,72.60
2018-05-16T01:50:19.788Z,74.20
2018-05-16T01:52:47.998Z,76.70
2018-05-16T01:55:15.468Z,76.60
2018-05-16T01:57:42.925Z,79.30
2018-05-16T02:00:10.393Z,82.80
2018-05-16T02:02:37.846Z,86.30
2018-05-16T02:05:05.285Z,88.50
2018-05-16T02:07:32.713Z,90.10
2018-05-16T02:10:00.917Z,91.00
2018-05-16T02:12:28.393Z,91.00
2018-05-16T02:14:55.830Z,90.80
2018-05-16T02:17:23.309Z,91.20
2018-05-16T02:19:50.745Z,91.60
2018-05-16T02:22:18.177Z,91.10
2018-05-16T02:24:46.505Z,92.90
2018-05-16T02:27:13.957Z,92.90
2018-05-16T02:29:41.389Z,93.00
2018-05-16T02:32:08.833Z,92.50
2018-05-16T02:34:37.049Z,93.40
2018-05-16T02:37:04.493Z,93.40
2018-05-16T02:39:31.924Z,93.50
2018-05-16T02:42:00.147Z,93.50
2018-05-16T02:44:27.597Z,93.50
2018-05-16T02:46:55.057Z,93.30
2018-05-16T02:49:22.514Z,93.40
2018-05-16T02:51:50.079Z,93.70
2018-05-16T02:54:17.579Z,93.50
2018-05-16T02:56:44.973Z,93.50
2018-05-16T02:59:12.473Z,93.20
2018-05-16T03:01:40.033Z,93.70
2018-05-16T03:04:07.478Z,93.80
2018-05-16T03:06:34.905Z,93.60
2018-05-16T03:09:02.345Z,94.00
2018-05-16T03:11:29.777Z,93.50
2018-05-16T03:13:58.022Z,93.70
2018-05-16T03:16:25.451Z,93.70
2018-05-16T03:18:52.886Z,93.60
2018-05-16T03:21:20.329Z,93.70
2018-05-16T03:23:48.529Z,93.40
2018-05-16T03:26:16.013Z,93.40
2018-05-16T03:28:43.469Z,93.50
2018-05-16T03:31:10.933Z,93.50
2018-05-16T03:33:38.357Z,93.20
2018-05-16T03:36:05.848Z,93.20
2018-05-16T03:38:33.273Z,93.40
2018-05-16T03:41:00.711Z,93.20
2018-05-16T03:43:28.940Z,93.30
2018-05-16T03:45:56.374Z,93.30
2018-05-16T03:48:23.851Z,93.20
2018-05-16T03:50:51.290Z,93.00
2018-05-16T03:53:18.770Z,93.20
2018-05-16T03:55:46.209Z,93.50
2018-05-16T03:58:25.619Z,93.50
2018-05-16T04:01:05.802Z,93.50
2018-05-16T04:03:45.156Z,93.50
2018-05-16T04:06:12.589Z,93.70
2018-05-16T04:08:40.072Z,93.70
2018-05-16T04:11:07.509Z,93.60
2018-05-16T04:13:35.289Z,93.40
2018-05-16T04:16:02.657Z,93.40
2018-05-16T04:18:30.098Z,93.40
2018-05-16T04:20:57.563Z,93.30
2018-05-16T04:23:25.021Z,93.40
2018-05-16T04:25:52.484Z,93.50
2018-05-16T04:28:19.953Z,93.50
2018-05-16T04:30:47.402Z,93.60
2018-05-16T04:33:14.837Z,93.80
2018-05-16T04:35:42.274Z,93.80
2018-05-16T04:38:10.508Z,93.90
2018-05-16T04:40:37.949Z,93.90
2018-05-16T04:43:05.401Z,93.80
2018-05-16T04:45:32.861Z,93.40
2018-05-16T04:48:00.317Z,93.00
2018-05-16T04:50:27.750Z,92.80
2018-05-16T04:52:55.203Z,92.30
2018-05-16T04:55:22.689Z,92.00
2018-05-16T04:57:50.145Z,91.80
2018-05-16T05:00:17.589Z,92.20
2018-05-16T05:02:45.064Z,92.00
2018-05-16T05:05:12.526Z,92.20
2018-05-16T05:07:39.982Z,92.40
2018-05-16T05:10:07.433Z,92.30
2018-05-16T05:12:34.877Z,92.20
2018-05-16T05:15:02.357Z,91.80
2018-05-16T05:17:30.620Z,91.90
2018-05-16T05:19:58.085Z,91.70
2018-05-16T05:22:25.525Z,91.50
2018-05-16T05:24:52.957Z,91.00
2018-05-16T05:27:20.465Z,91.00
2018-05-16T05:29:47.921Z,90.60
2018-05-16T05:32:15.477Z,90.10
2018-05-16T05:34:43.653Z,89.70
2018-05-16T05:37:11.109Z,89.60
2018-05-16T05:39:38.561Z,89.80
2018-05-16T05:42:06.829Z,90.00
2018-05-16T05:44:34.282Z,89.10
2018-05-16T05:47:01.709Z,88.40
2018-05-16T05:49:30.045Z,88.20
2018-05-16T05:51:57.488Z,88.20
2018-05-16T05:54:24.934Z,86.00
2018-05-16T05:56:52.404Z,81.00
2018-05-16T05:59:19.852Z,77.60
2018-05-16T06:01:47.321Z,72.40
2018-05-16T06:04:14.763Z,68.30
2018-05-16T06:06:42.209Z,66.90
2018-05-16T06:09:09.636Z,65.60
2018-05-16T06:11:37.878Z,63.50
2018-05-16T06:14:05.321Z,63.40
2018-05-16T06:16:32.753Z,60.90
2018-05-16T06:19:00.245Z,59.20
2018-05-16T06:21:27.682Z,57.40
2018-05-16T06:23:55.986Z,56.90
2018-05-16T06:26:23.420Z,54.00
2018-05-16T06:28:50.901Z,52.10
2018-05-16T06:31:18.345Z,52.70
2018-05-16T06:33:45.777Z,50.20
2018-05-16T06:36:13.273Z,47.80
2018-05-16T06:38:40.697Z,48.00
2018-05-16T06:41:08.177Z,44.30
2018-05-16T06:43:35.601Z,44.40
2018-05-16T06:46:03.102Z,44.00
2018-05-16T06:48:30.556Z,43.10
2018-05-16T06:50:58.021Z,40.80
2018-05-16T06:53:25.468Z,40.80
2018-05-16T06:55:52.930Z,41.80
2018-05-16T06:58:20.369Z,41.60
2018-05-16T07:00:47.805Z,40.70
2018-05-16T07:03:15.305Z,39.90
2018-05-16T07:05:42.761Z,39.30
2018-05-16T07:08:10.966Z,40.00
2018-05-16T07:10:38.389Z,43.50
2018-05-16T07:13:05.850Z,45.30
2018-05-16T07:15:33.305Z,45.50
2018-05-16T07:18:00.729Z,46.50
2018-05-16T07:20:28.202Z,47.60
2018-05-16T07:22:55.781Z,46.30
2018-05-16T07:25:23.856Z,46.40
2018-05-16T07:27:51.296Z,46.40
2018-05-16T07:30:18.728Z,46.70
2018-05-16T07:32:46.941Z,45.30
2018-05-16T07:35:14.382Z,45.30
2018-05-16T07:37:41.949Z,45.50
2018-05-16T07:40:09.421Z,44.00
2018-05-16T07:42:36.871Z,46.70
2018-05-16T07:45:04.334Z,46.80
2018-05-16T07:47:31.826Z,46.30
2018-05-16T07:49:59.249Z,46.50
2018-05-16T07:52:26.709Z,45.60
2018-05-16T07:54:54.147Z,46.20
2018-05-16T07:57:21.626Z,48.50
2018-05-16T07:59:49.077Z,48.70
2018-05-16T08:02:16.511Z,48.00
2018-05-16T08:04:44.007Z,50.60
2018-05-16T08:07:11.437Z,48.40
2018-05-16T08:09:38.885Z,47.10
2018-05-16T08:12:06.372Z,47.60
2018-05-16T08:14:33.828Z,47.90
2018-05-16T08:17:01.290Z,47.30
2018-05-16T08:19:29.250Z,48.80
2018-05-16T08:21:56.686Z,48.10
2018-05-16T08:24:24.108Z,47.20
2018-05-16T08:26:52.351Z,47.20
2018-05-16T08:29:20.621Z,46.90
2018-05-16T08:31:48.133Z,48.50
2018-05-16T08:34:16.361Z,47.20
2018-05-16T08:36:43.910Z,47.20
2018-05-16T08:39:11.270Z,46.30
2018-05-16T08:41:38.685Z,45.10
2018-05-16T08:44:06.889Z,45.70
2018-05-16T08:46:34.313Z,45.60
2018-05-16T08:49:02.544Z,46.30
2018-05-16T08:51:29.980Z,46.30
2018-05-16T08:53:57.454Z,45.90
2018-05-16T08:56:24.881Z,48.10
2018-05-16T08:58:52.369Z,48.60
2018-05-16T09:01:19.891Z,49.40
2018-05-16T09:03:47.262Z,49.10
2018-05-16T09:06:14.709Z,49.30
2018-05-16T09:08:42.133Z,49.50
2018-05-16T09:11:09.659Z,51.10
2018-05-16T09:13:37.082Z,50.00
2018-05-16T09:16:04.575Z,49.20
2018-05-16T09:18:32.030Z,48.50
2018-05-16T09:20:59.472Z,47.40
2018-05-16T09:23:27.037Z,47.40
2018-05-16T09:25:54.509Z,50.60
2018-05-16T09:28:22.387Z,49.00
2018-05-16T09:30:50.547Z,47.70
2018-05-16T09:33:17.989Z,47.60
2018-05-16T09:35:45.473Z,47.80
2018-05-16T09:38:12.913Z,48.30
2018-05-16T09:40:40.353Z,49.40
2018-05-16T09:43:07.781Z,49.50
2018-05-16T09:45:36.038Z,49.00
2018-05-16T09:48:03.468Z,49.10
2018-05-16T09:50:30.901Z,48.30
2018-05-16T09:52:58.571Z,49.30
2018-05-16T09:55:26.046Z,48.80
2018-05-16T09:57:53.505Z,49.40
2018-05-16T10:00:26.754Z,48.70
2018-05-16T10:02:55.388Z,49.60
2018-05-16T10:05:22.817Z,49.60
2018-05-16T10:07:50.298Z,51.60
2018-05-16T10:10:17.757Z,50.40
2018-05-16T10:12:45.195Z,48.50
2018-05-16T10:15:12.700Z,48.30
2018-05-16T10:17:40.237Z,50.30
2018-05-16T10:20:07.772Z,49.90
2018-05-16T10:22:35.121Z,50.30
2018-05-16T10:25:02.607Z,50.40
2018-05-16T10:27:30.065Z,50.40
2018-05-16T10:29:57.493Z,50.70
2018-05-16T10:32:25.006Z,52.00
2018-05-16T10:34:52.481Z,52.70
2018-05-16T10:37:20.779Z,53.30
2018-05-16T10:39:48.174Z,53.10
2018-05-16T10:42:15.633Z,53.20
2018-05-16T10:44:43.108Z,54.00
2018-05-16T10:47:10.608Z,54.00
2018-05-16T10:49:38.815Z,53.40
2018-05-16T10:52:06.371Z,53.40
2018-05-16T10:54:33.891Z,54.10
2018-05-16T10:57:01.393Z,54.90
2018-05-16T10:59:28.870Z,54.70
2018-05-16T11:01:56.318Z,54.10
2018-05-16T11:04:23.771Z,54.40
2018-05-16T11:06:51.213Z,53.70
2018-05-16T11:09:19.454Z,53.10
2018-05-16T11:11:47.653Z,52.80
2018-05-16T11:14:15.092Z,52.70
2018-05-16T11:16:43.289Z,53.40
2018-05-16T11:19:10.764Z,53.30
2018-05-16T11:21:38.194Z,53.80
2018-05-16T11:24:05.635Z,52.20
2018-05-16T11:26:33.828Z,52.40
2018-05-16T11:29:01.272Z,52.40
2018-05-16T11:31:29.474Z,51.40
2018-05-16T11:33:56.913Z,51.40
2018-05-16T11:36:24.337Z,50.90
2018-05-16T11:38:51.866Z,52.00
2018-05-16T11:41:19.322Z,49.00
2018-05-16T11:43:46.777Z,49.00
2018-05-16T11:46:14.241Z,51.00
2018-05-16T11:48:41.676Z,52.00
2018-05-16T11:51:09.113Z,51.80
2018-05-16T11:53:36.725Z,53.20
2018-05-16T11:56:04.932Z,52.40
2018-05-16T11:58:33.136Z,51.90
2018-05-16T12:01:00.576Z,51.50
2018-05-16T12:03:28.797Z,52.60
2018-05-16T12:05:56.257Z,52.60
2018-05-16T12:08:23.715Z,51.20
2018-05-16T12:10:51.168Z,52.80
2018-05-16T12:13:18.601Z,50.20
2018-05-16T12:15:46.101Z,48.90
2018-05-16T12:18:13.541Z,49.10
2018-05-16T12:20:40.978Z,50.80
2018-05-16T12:23:08.404Z,49.30
2018-05-16T12:25:36.614Z,49.90
2018-05-16T12:28:04.094Z,49.90
2018-05-16T12:30:31.545Z,49.30
2018-05-16T12:32:58.997Z,50.90
2018-05-16T12:35:26.577Z,49.60
2018-05-16T12:37:54.027Z,49.30
2018-05-16T12:40:21.449Z,50.40
2018-05-16T12:43:00.817Z,48.50
2018-05-16T12:45:28.249Z,50.60
2018-05-16T12:47:55.729Z,52.20
2018-05-16T12:50:23.189Z,53.50
2018-05-16T12:52:50.649Z,52.70
2018-05-16T12:55:18.106Z,52.70
2018-05-16T12:57:45.573Z,52.60
2018-05-16T13:00:13.014Z,53.00
2018-05-16T13:02:40.441Z,54.00
2018-05-16T13:05:07.893Z,56.50
2018-05-16T13:07:36.113Z,64.20
2018-05-16T13:10:03.542Z,64.30
2018-05-16T13:12:30.972Z,63.00
2018-05-16T13:14:59.169Z,70.60
2018-05-16T13:17:26.657Z,70.70
2018-05-16T13:19:54.085Z,70.80
2018-05-16T13:22:21.526Z,74.10
2018-05-16T13:24:49.717Z,72.40
2018-05-16T13:27:17.201Z,72.40
2018-05-16T13:29:44.881Z,72.60
2018-05-16T13:32:12.325Z,72.90
2018-05-16T13:34:39.769Z,72.40
2018-05-16T13:37:07.197Z,72.50
2018-05-16T13:39:35.446Z,72.10
2018-05-16T13:42:02.963Z,72.10
2018-05-16T13:44:30.401Z,73.60
2018-05-16T13:46:57.885Z,76.60
2018-05-16T13:49:25.341Z,75.70
2018-05-16T13:51:52.781Z,74.20
2018-05-16T13:54:20.213Z,73.70
2018-05-16T13:56:48.413Z,70.70
2018-05-16T13:59:15.896Z,70.70
2018-05-16T14:01:43.366Z,71.30
2018-05-16T14:04:10.801Z,71.70
2018-05-16T14:06:38.269Z,69.80
2018-05-16T14:09:06.241Z,71.10
2018-05-16T14:11:33.708Z,72.40
2018-05-16T14:14:01.163Z,70.60
2018-05-16T14:16:28.609Z,70.60
2018-05-16T14:18:56.080Z,72.30
2018-05-16T14:21:23.529Z,71.70
2018-05-16T14:23:51.011Z,71.70
2018-05-16T14:26:18.413Z,69.70
2018-05-16T14:28:45.843Z,69.60
2018-05-16T14:31:14.107Z,71.60
2018-05-16T14:33:43.079Z,69.40
2018-05-16T14:36:10.541Z,69.40
2018-05-16T14:38:38.001Z,68.20
2018-05-16T14:41:05.449Z,67.80
2018-05-16T14:43:32.899Z,66.30
2018-05-16T14:46:00.345Z,64.80
2018-05-16T14:48:27.812Z,65.90
2018-05-16T14:50:55.273Z,66.50
2018-05-16T14:53:22.701Z,65.50
2018-05-16T14:55:50.138Z,65.00
2018-05-16T14:58:18.328Z,64.20
2018-05-16T15:00:45.825Z,64.10
2018-05-16T15:03:13.277Z,64.40
2018-05-16T15:05:40.721Z,62.20
2018-05-16T15:08:08.178Z,62.30
2018-05-16T15:10:35.610Z,63.60
2018-05-16T15:13:03.840Z,62.40
2018-05-16T15:15:31.306Z,62.40
2018-05-16T15:17:58.849Z,63.70
2018-05-16T15:20:26.321Z,63.60
2018-05-16T15:22:53.865Z,63.50
2018-05-16T15:25:21.305Z,64.10
2018-05-16T15:27:48.781Z,61.80
2018-05-16T15:30:16.254Z,63.20
2018-05-16T15:32:43.811Z,64.20
2018-05-16T15:35:11.233Z,64.60
2018-05-16T15:37:38.719Z,64.40
2018-05-16T15:40:06.181Z,64.00
2018-05-16T15:42:33.641Z,62.40
2018-05-16T15:45:01.083Z,61.70
2018-05-16T15:47:28.549Z,61.70
2018-05-16T15:49:55.989Z,62.50
2018-05-16T15:52:24.041Z,62.50
2018-05-16T15:54:51.473Z,63.60
2018-05-16T15:57:19.677Z,65.60
2018-05-16T15:59:47.182Z,65.30
2018-05-16T16:02:14.621Z,65.10
2018-05-16T16:04:42.063Z,63.50
2018-05-16T16:07:09.489Z,64.30
2018-05-16T16:09:37.809Z,65.00
2018-05-16T16:12:05.264Z,64.90
2018-05-16T16:14:32.673Z,64.00
2018-05-16T16:17:00.877Z,65.30
2018-05-16T16:19:28.310Z,65.20
2018-05-16T16:21:56.541Z,66.00
2018-05-16T16:24:23.993Z,66.00
2018-05-16T16:26:51.435Z,66.20
2018-05-16T16:29:19.000Z,65.70
2018-05-16T16:31:46.465Z,66.10
2018-05-16T16:34:14.657Z,65.60
2018-05-16T16:36:42.814Z,65.60
2018-05-16T16:39:10.240Z,66.00
2018-05-16T16:41:37.739Z,65.90
2018-05-16T16:44:05.165Z,64.60
2018-05-16T16:46:32.659Z,65.90
2018-05-16T16:49:00.087Z,65.20
2018-05-16T16:51:27.513Z,64.80
2018-05-16T16:53:55.737Z,67.00
2018-05-16T16:56:23.169Z,67.70
2018-05-16T16:58:50.613Z,71.50
2018-05-16T17:01:18.119Z,77.10
2018-05-16T17:03:45.557Z,76.50
2018-05-16T17:06:12.985Z,78.30
2018-05-16T17:08:40.439Z,78.50
2018-05-16T17:11:08.659Z,85.50
2018-05-16T17:13:36.226Z,85.40
2018-05-16T17:16:03.696Z,86.50
2018-05-16T17:18:31.128Z,88.60
2018-05-16T17:20:58.573Z,90.60
2018-05-16T17:23:26.055Z,90.40
2018-05-16T17:25:53.513Z,90.90
2018-05-16T17:28:20.973Z,91.60
2018-05-16T17:30:48.443Z,91.50
2018-05-16T17:33:15.906Z,91.80
2018-05-16T17:35:43.342Z,90.50
2018-05-16T17:38:10.793Z,90.20
2018-05-16T17:40:38.235Z,90.80
2018-05-16T17:43:05.662Z,91.80
2018-05-16T17:45:33.881Z,90.90
2018-05-16T17:48:01.346Z,90.80
2018-05-16T17:50:28.801Z,91.40
2018-05-16T17:52:56.710Z,90.30
2018-05-16T17:55:25.386Z,90.70
2018-05-16T17:57:52.825Z,90.40
2018-05-16T18:00:20.956Z,90.50
2018-05-16T18:02:48.755Z,91.70
2018-05-16T18:05:16.177Z,92.70
2018-05-16T18:07:43.608Z,92.80
2018-05-16T18:10:11.845Z,97.20
2018-05-16T18:12:39.300Z,96.90
2018-05-16T18:15:15.510Z,98.00
2018-05-16T18:17:43.718Z,97.50
2018-05-16T18:20:11.162Z,97.50
2018-05-16T18:22:38.590Z,96.90
2018-05-16T18:25:06.033Z,97.60
2018-05-16T18:27:33.469Z,97.50
2018-05-16T18:30:00.921Z,97.50
2018-05-16T18:32:28.381Z,97.50
2018-05-16T18:34:55.820Z,97.80
2018-05-16T18:37:23.297Z,98.10
2018-05-16T18:39:50.766Z,95.90
2018-05-16T18:42:18.311Z,96.60
2018-05-16T18:44:45.673Z,96.60
2018-05-16T18:47:13.110Z,96.50
2018-05-16T18:49:40.545Z,96.00
2018-05-16T18:52:08.757Z,96.90
2018-05-16T18:54:36.185Z,96.90
2018-05-16T18:57:03.625Z,96.70
2018-05-16T18:59:31.861Z,97.40
2018-05-16T19:01:59.305Z,97.40
2018-05-16T19:04:26.764Z,97.50
2018-05-16T19:06:54.210Z,97.40
2018-05-16T19:09:21.688Z,97.60
2018-05-16T19:11:49.251Z,97.50
2018-05-16T19:14:16.719Z,97.70
2018-05-16T19:16:44.170Z,96.50
2018-05-16T19:19:11.608Z,96.10
2018-05-16T19:21:39.081Z,96.10
2018-05-16T19:24:06.521Z,96.10
2018-05-16T19:26:33.957Z,96.10
2018-05-16T19:29:01.397Z,97.00
2018-05-16T19:31:29.620Z,97.20
2018-05-16T19:33:57.070Z,97.20
2018-05-16T19:36:24.536Z,97.20
2018-05-16T19:38:51.993Z,97.10
2018-05-16T19:41:19.434Z,97.30
2018-05-16T19:43:46.909Z,97.20
2018-05-16T19:46:14.432Z,96.70
2018-05-16T19:48:41.856Z,96.70
2018-05-16T19:51:09.298Z,96.90
2018-05-16T19:53:36.742Z,96.70
2018-05-16T19:56:04.177Z,97.20
2018-05-16T19:58:31.627Z,96.20
2018-05-16T20:00:59.817Z,96.30
2018-05-16T20:03:27.260Z,96.60
2018-05-16T20:05:54.746Z,96.30
2018-05-16T20:08:22.201Z,96.30
2018-05-16T20:10:49.657Z,96.30
2018-05-16T20:13:17.094Z,96.00
2018-05-16T20:15:44.521Z,95.90
2018-05-16T20:18:12.735Z,95.90
2018-05-16T20:20:40.186Z,95.90
2018-05-16T20:23:08.073Z,95.60
2018-05-16T20:25:35.529Z,95.60
2018-05-16T20:28:02.993Z,95.60
2018-05-16T20:30:30.446Z,95.80
2018-05-16T20:32:58.221Z,95.70
2018-05-16T20:35:25.653Z,95.70
2018-05-16T20:37:53.134Z,95.90
2018-05-16T20:40:20.581Z,95.10
2018-05-16T20:42:48.019Z,95.70
2018-05-16T20:45:15.500Z,95.30
2018-05-16T20:47:43.657Z,95.80
2018-05-16T20:50:11.137Z,95.80
2018-05-16T20:52:38.654Z,96.00
2018-05-16T20:55:06.861Z,95.90
2018-05-16T20:57:34.306Z,95.90
2018-05-16T21:00:01.785Z,95.90
2018-05-16T21:02:29.241Z,96.30
2018-05-16T21:04:56.709Z,96.00
2018-05-16T21:07:24.150Z,96.20
2018-05-16T21:09:51.590Z,96.20
2018-05-16T21:12:19.053Z,96.70
2018-05-16T21:14:46.472Z,96.50
2018-05-16T21:17:14.704Z,96.20
2018-05-16T21:19:42.161Z,95.80
2018-05-16T21:22:09.605Z,95.70
2018-05-16T21:24:37.082Z,95.30
2018-05-16T21:27:04.560Z,95.30
2018-05-16T21:29:32.097Z,95.40
2018-05-16T21:31:59.660Z,94.80
2018-05-16T21:34:27.101Z,95.20
2018-05-16T21:36:54.549Z,94.50
2018-05-16T21:39:22.043Z,94.50
2018-05-16T21:41:50.308Z,94.20
2018-05-16T21:44:17.817Z,93.30
2018-05-16T21:46:46.014Z,93.10
2018-05-16T21:49:13.497Z,93.10
2018-05-16T21:51:40.941Z,94.20
2018-05-16T21:54:08.377Z,93.30
2018-05-16T21:56:35.883Z,94.00
2018-05-16T21:59:03.334Z,93.60
2018-05-16T22:01:30.784Z,92.80
2018-05-16T22:03:58.245Z,93.40
2018-05-16T22:06:25.682Z,92.70
2018-05-16T22:08:53.168Z,93.00
2018-05-16T22:11:20.629Z,93.60
2018-05-16T22:13:48.539Z,93.40
2018-05-16T22:16:16.741Z,93.10
2018-05-16T22:18:45.256Z,93.10
2018-05-16T22:21:12.806Z,92.90
2018-05-16T22:23:40.278Z,92.30
2018-05-16T22:26:07.821Z,92.40
2018-05-16T22:28:35.268Z,93.10
2018-05-16T22:31:08.453Z,92.50
2018-05-16T22:33:41.677Z,93.20
2018-05-16T22:36:14.763Z,92.80
2018-05-16T22:38:47.921Z,92.20
2018-05-16T22:41:21.062Z,93.30
2018-05-16T22:46:50.117Z,91.70
2018-05-16T22:49:17.618Z,92.40
2018-05-16T22:51:45.071Z,91.80
2018-05-16T22:54:12.503Z,92.30
2018-05-16T22:56:39.989Z,92.40
2018-05-16T22:59:07.423Z,92.10
2018-05-16T23:01:34.861Z,92.40
2018-05-16T23:04:02.356Z,92.30
2018-05-16T23:06:29.798Z,92.20
2018-05-16T23:08:57.249Z,91.80
2018-05-16T23:11:24.728Z,92.30
2018-05-16T23:13:52.177Z,92.60
2018-05-16T23:16:19.645Z,92.30
2018-05-16T23:18:47.088Z,92.60
2018-05-16T23:21:14.766Z,92.20
2018-05-16T23:23:42.225Z,92.50
2018-05-16T23:26:09.668Z,92.60
2018-05-16T23:28:37.137Z,92.10
2018-05-16T23:31:04.578Z,92.60
2018-05-16T23:33:32.053Z,92.50
2018-05-16T23:35:59.520Z,92.50
2018-05-16T23:38:26.953Z,92.20
2018-05-16T23:40:54.394Z,92.30
2018-05-16T23:43:21.826Z,92.30
2018-05-16T23:45:50.031Z,92.50
2018-05-16T23:48:17.478Z,92.40
2018-05-16T23:50:44.924Z,92.00
2018-05-16T23:53:13.150Z,92.00
2018-05-16T23:55:40.613Z,92.00
2018-05-16T23:58:08.070Z,92.40
